sensor_id;sensor_type;location;lat;lon;timestamp;temperature;humidity
51559;DHT22;61650;48.882;2.092;2023-03-19T00:02:21;9.80;99.90
51559;DHT22;61650;48.882;2.092;2023-03-19T00:04:46;9.70;99.90
51559;DHT22;61650;48.882;2.092;2023-03-19T00:07:13;9.70;99.90
51559;DHT22;61650;48.882;2.092;2023-03-19T00:09:39;9.70;99.90
51559;DHT22;61650;48.882;2.092;2023-03-19T00:12:04;9.70;99.90
51559;DHT22;61650;48.882;2.092;2023-03-19T00:14:30;9.70;99.90
51559;DHT22;61650;48.882;2.092;2023-03-19T00:16:56;9.70;99.90
51559;DHT22;61650;48.882;2.092;2023-03-19T00:19:21;9.70;99.90
51559;DHT22;61650;48.882;2.092;2023-03-19T00:21:47;9.70;99.90
51559;DHT22;61650;48.882;2.092;2023-03-19T00:24:12;9.70;99.90
51559;DHT22;61650;48.882;2.092;2023-03-19T00:26:38;9.70;99.90
51559;DHT22;61650;48.882;2.092;2023-03-19T00:29:05;9.70;99.90
51559;DHT22;61650;48.882;2.092;2023-03-19T00:31:30;9.70;99.90
51559;DHT22;61650;48.882;2.092;2023-03-19T00:33:57;9.70;99.90
51559;DHT22;61650;48.882;2.092;2023-03-19T00:36:25;9.70;99.90
51559;DHT22;61650;48.882;2.092;2023-03-19T00:38:51;9.70;99.90
51559;DHT22;61650;48.882;2.092;2023-03-19T00:41:17;9.70;99.90
51559;DHT22;61650;48.882;2.092;2023-03-19T00:43:45;9.70;99.90
51559;DHT22;61650;48.882;2.092;2023-03-19T00:46:11;9.70;99.90
51559;DHT22;61650;48.882;2.092;2023-03-19T00:48:37;9.70;99.90
51559;DHT22;61650;48.882;2.092;2023-03-19T00:51:05;9.70;99.90
51559;DHT22;61650;48.882;2.092;2023-03-19T00:53:31;9.70;99.90
51559;DHT22;61650;48.882;2.092;2023-03-19T00:55:57;9.70;99.90
51559;DHT22;61650;48.882;2.092;2023-03-19T00:58:23;9.70;99.90
51559;DHT22;61650;48.882;2.092;2023-03-19T01:00:52;9.70;99.90
51559;DHT22;61650;48.882;2.092;2023-03-19T01:03:17;9.70;99.90
51559;DHT22;61650;48.882;2.092;2023-03-19T01:05:43;9.70;99.90
51559;DHT22;61650;48.882;2.092;2023-03-19T01:08:11;9.70;99.90
51559;DHT22;61650;48.882;2.092;2023-03-19T01:10:37;9.70;99.90
51559;DHT22;61650;48.882;2.092;2023-03-19T01:13:02;9.70;99.90
51559;DHT22;61650;48.882;2.092;2023-03-19T01:15:28;9.70;99.90
51559;DHT22;61650;48.882;2.092;2023-03-19T01:17:54;9.70;99.90
51559;DHT22;61650;48.882;2.092;2023-03-19T01:20:19;9.70;99.90
51559;DHT22;61650;48.882;2.092;2023-03-19T01:22:48;9.70;99.90
51559;DHT22;61650;48.882;2.092;2023-03-19T01:25:14;9.70;99.90
51559;DHT22;61650;48.882;2.092;2023-03-19T01:27:40;9.70;99.90
51559;DHT22;61650;48.882;2.092;2023-03-19T01:30:06;9.70;99.90
51559;DHT22;61650;48.882;2.092;2023-03-19T01:32:32;9.70;99.90
51559;DHT22;61650;48.882;2.092;2023-03-19T01:34:58;9.70;99.90
51559;DHT22;61650;48.882;2.092;2023-03-19T01:37:23;9.70;99.90
51559;DHT22;61650;48.882;2.092;2023-03-19T01:39:49;9.60;99.90
51559;DHT22;61650;48.882;2.092;2023-03-19T01:42:15;9.60;99.90
51559;DHT22;61650;48.882;2.092;2023-03-19T01:44:41;9.60;99.90
51559;DHT22;61650;48.882;2.092;2023-03-19T01:47:18;9.60;99.90
51559;DHT22;61650;48.882;2.092;2023-03-19T01:49:52;9.60;99.90
51559;DHT22;61650;48.882;2.092;2023-03-19T01:52:18;9.60;99.90
51559;DHT22;61650;48.882;2.092;2023-03-19T01:54:44;9.60;99.90
51559;DHT22;61650;48.882;2.092;2023-03-19T01:57:12;9.60;99.90
51559;DHT22;61650;48.882;2.092;2023-03-19T01:59:41;9.60;99.90
51559;DHT22;61650;48.882;2.092;2023-03-19T02:02:21;9.60;99.90
51559;DHT22;61650;48.882;2.092;2023-03-19T02:04:51;9.50;99.90
51559;DHT22;61650;48.882;2.092;2023-03-19T02:07:18;9.50;99.90
51559;DHT22;61650;48.882;2.092;2023-03-19T02:09:45;9.50;99.90
51559;DHT22;61650;48.882;2.092;2023-03-19T02:12:11;9.40;99.90
51559;DHT22;61650;48.882;2.092;2023-03-19T02:14:37;9.40;99.90
51559;DHT22;61650;48.882;2.092;2023-03-19T02:17:04;9.30;99.90
51559;DHT22;61650;48.882;2.092;2023-03-19T02:19:48;9.30;99.90
51559;DHT22;61650;48.882;2.092;2023-03-19T02:22:17;9.20;99.90
51559;DHT22;61650;48.882;2.092;2023-03-19T02:27:28;9.20;99.90
51559;DHT22;61650;48.882;2.092;2023-03-19T02:29:54;9.20;99.90
51559;DHT22;61650;48.882;2.092;2023-03-19T02:32:19;9.10;99.90
51559;DHT22;61650;48.882;2.092;2023-03-19T02:34:45;9.00;99.90
51559;DHT22;61650;48.882;2.092;2023-03-19T02:37:26;9.10;99.90
51559;DHT22;61650;48.882;2.092;2023-03-19T02:40:20;9.10;99.90
51559;DHT22;61650;48.882;2.092;2023-03-19T02:42:47;9.10;99.90
51559;DHT22;61650;48.882;2.092;2023-03-19T02:45:13;9.00;99.90
51559;DHT22;61650;48.882;2.092;2023-03-19T02:47:39;9.00;99.90
51559;DHT22;61650;48.882;2.092;2023-03-19T02:50:05;9.00;99.90
51559;DHT22;61650;48.882;2.092;2023-03-19T02:52:32;8.90;99.90
51559;DHT22;61650;48.882;2.092;2023-03-19T02:54:58;9.00;99.90
51559;DHT22;61650;48.882;2.092;2023-03-19T02:57:23;8.90;99.90
51559;DHT22;61650;48.882;2.092;2023-03-19T02:59:49;8.80;99.90
51559;DHT22;61650;48.882;2.092;2023-03-19T03:02:15;8.80;99.90
51559;DHT22;61650;48.882;2.092;2023-03-19T03:04:40;8.80;99.90
51559;DHT22;61650;48.882;2.092;2023-03-19T03:07:06;8.80;99.90
51559;DHT22;61650;48.882;2.092;2023-03-19T03:09:33;8.90;99.90
51559;DHT22;61650;48.882;2.092;2023-03-19T03:11:59;8.90;99.90
51559;DHT22;61650;48.882;2.092;2023-03-19T03:14:25;9.00;99.90
51559;DHT22;61650;48.882;2.092;2023-03-19T03:16:50;9.00;99.90
51559;DHT22;61650;48.882;2.092;2023-03-19T03:19:16;9.00;99.90
51559;DHT22;61650;48.882;2.092;2023-03-19T03:21:42;9.00;99.90
51559;DHT22;61650;48.882;2.092;2023-03-19T03:24:08;9.00;99.90
51559;DHT22;61650;48.882;2.092;2023-03-19T03:26:34;9.00;99.90
51559;DHT22;61650;48.882;2.092;2023-03-19T03:29:03;9.00;99.90
51559;DHT22;61650;48.882;2.092;2023-03-19T03:31:29;9.10;99.90
51559;DHT22;61650;48.882;2.092;2023-03-19T03:33:54;9.10;99.90
51559;DHT22;61650;48.882;2.092;2023-03-19T03:36:20;9.10;99.90
51559;DHT22;61650;48.882;2.092;2023-03-19T03:38:46;9.10;99.90
51559;DHT22;61650;48.882;2.092;2023-03-19T03:41:11;9.10;99.90
51559;DHT22;61650;48.882;2.092;2023-03-19T03:43:37;9.20;99.90
51559;DHT22;61650;48.882;2.092;2023-03-19T03:46:04;9.20;99.90
51559;DHT22;61650;48.882;2.092;2023-03-19T03:48:29;9.20;99.90
51559;DHT22;61650;48.882;2.092;2023-03-19T03:50:55;9.20;99.90
51559;DHT22;61650;48.882;2.092;2023-03-19T03:53:21;9.20;99.90
51559;DHT22;61650;48.882;2.092;2023-03-19T03:55:46;9.20;99.90
51559;DHT22;61650;48.882;2.092;2023-03-19T03:58:12;9.20;99.90
51559;DHT22;61650;48.882;2.092;2023-03-19T04:00:38;9.10;99.90
51559;DHT22;61650;48.882;2.092;2023-03-19T04:03:03;9.00;99.90
51559;DHT22;61650;48.882;2.092;2023-03-19T04:05:29;9.00;99.90
51559;DHT22;61650;48.882;2.092;2023-03-19T04:07:55;8.90;99.90
51559;DHT22;61650;48.882;2.092;2023-03-19T04:10:21;8.90;99.90
51559;DHT22;61650;48.882;2.092;2023-03-19T04:12:47;8.80;99.90
51559;DHT22;61650;48.882;2.092;2023-03-19T04:15:14;8.80;99.90
51559;DHT22;61650;48.882;2.092;2023-03-19T04:17:41;8.80;99.90
51559;DHT22;61650;48.882;2.092;2023-03-19T04:20:08;8.80;99.90
51559;DHT22;61650;48.882;2.092;2023-03-19T04:22:34;8.80;99.90
51559;DHT22;61650;48.882;2.092;2023-03-19T04:24:59;8.80;99.90
51559;DHT22;61650;48.882;2.092;2023-03-19T04:27:25;8.90;99.90
51559;DHT22;61650;48.882;2.092;2023-03-19T04:29:51;8.90;99.90
51559;DHT22;61650;48.882;2.092;2023-03-19T04:32:16;8.90;99.90
51559;DHT22;61650;48.882;2.092;2023-03-19T04:34:42;8.90;99.90
51559;DHT22;61650;48.882;2.092;2023-03-19T04:37:08;8.90;99.90
51559;DHT22;61650;48.882;2.092;2023-03-19T04:39:37;8.90;99.90
51559;DHT22;61650;48.882;2.092;2023-03-19T04:42:02;8.90;99.90
51559;DHT22;61650;48.882;2.092;2023-03-19T04:44:29;8.80;99.90
51559;DHT22;61650;48.882;2.092;2023-03-19T04:46:55;8.80;99.90
51559;DHT22;61650;48.882;2.092;2023-03-19T04:49:21;8.80;99.90
51559;DHT22;61650;48.882;2.092;2023-03-19T04:51:46;8.80;99.90
51559;DHT22;61650;48.882;2.092;2023-03-19T04:54:12;8.80;99.90
51559;DHT22;61650;48.882;2.092;2023-03-19T04:56:38;8.80;99.90
51559;DHT22;61650;48.882;2.092;2023-03-19T04:59:03;8.80;99.90
51559;DHT22;61650;48.882;2.092;2023-03-19T05:01:29;8.80;99.90
51559;DHT22;61650;48.882;2.092;2023-03-19T05:03:55;8.80;99.90
51559;DHT22;61650;48.882;2.092;2023-03-19T05:06:21;8.80;99.90
51559;DHT22;61650;48.882;2.092;2023-03-19T05:08:46;8.80;99.90
51559;DHT22;61650;48.882;2.092;2023-03-19T05:11:13;8.80;99.90
51559;DHT22;61650;48.882;2.092;2023-03-19T05:13:38;8.80;99.90
51559;DHT22;61650;48.882;2.092;2023-03-19T05:16:04;8.80;99.90
51559;DHT22;61650;48.882;2.092;2023-03-19T05:18:30;8.80;99.90
51559;DHT22;61650;48.882;2.092;2023-03-19T05:20:55;8.80;99.90
51559;DHT22;61650;48.882;2.092;2023-03-19T05:23:21;8.90;99.90
51559;DHT22;61650;48.882;2.092;2023-03-19T05:25:47;8.90;99.90
51559;DHT22;61650;48.882;2.092;2023-03-19T05:28:13;8.90;99.90
51559;DHT22;61650;48.882;2.092;2023-03-19T05:30:39;8.90;99.90
51559;DHT22;61650;48.882;2.092;2023-03-19T05:33:06;8.90;99.90
51559;DHT22;61650;48.882;2.092;2023-03-19T05:35:31;8.80;99.90
51559;DHT22;61650;48.882;2.092;2023-03-19T05:37:57;8.80;99.90
51559;DHT22;61650;48.882;2.092;2023-03-19T05:40:23;8.80;99.90
51559;DHT22;61650;48.882;2.092;2023-03-19T05:42:49;8.80;99.90
51559;DHT22;61650;48.882;2.092;2023-03-19T05:45:15;8.80;99.90
51559;DHT22;61650;48.882;2.092;2023-03-19T05:47:42;8.80;99.90
51559;DHT22;61650;48.882;2.092;2023-03-19T05:50:09;8.90;99.90
51559;DHT22;61650;48.882;2.092;2023-03-19T05:52:36;8.90;99.90
51559;DHT22;61650;48.882;2.092;2023-03-19T05:55:01;8.90;99.90
51559;DHT22;61650;48.882;2.092;2023-03-19T05:57:27;8.80;99.90
51559;DHT22;61650;48.882;2.092;2023-03-19T05:59:53;8.90;99.90
51559;DHT22;61650;48.882;2.092;2023-03-19T06:02:18;8.90;99.90
51559;DHT22;61650;48.882;2.092;2023-03-19T06:04:44;8.90;99.90
51559;DHT22;61650;48.882;2.092;2023-03-19T06:07:10;8.90;99.90
51559;DHT22;61650;48.882;2.092;2023-03-19T06:09:36;8.90;99.90
51559;DHT22;61650;48.882;2.092;2023-03-19T06:12:01;8.90;99.90
51559;DHT22;61650;48.882;2.092;2023-03-19T06:14:28;8.90;99.90
51559;DHT22;61650;48.882;2.092;2023-03-19T06:16:54;8.90;99.90
51559;DHT22;61650;48.882;2.092;2023-03-19T06:19:20;8.90;99.90
51559;DHT22;61650;48.882;2.092;2023-03-19T06:21:46;8.90;99.90
51559;DHT22;61650;48.882;2.092;2023-03-19T06:24:11;8.90;99.90
51559;DHT22;61650;48.882;2.092;2023-03-19T06:26:37;8.90;99.90
51559;DHT22;61650;48.882;2.092;2023-03-19T06:29:03;8.90;99.90
51559;DHT22;61650;48.882;2.092;2023-03-19T06:31:29;8.90;99.90
51559;DHT22;61650;48.882;2.092;2023-03-19T06:33:55;8.90;99.90
51559;DHT22;61650;48.882;2.092;2023-03-19T06:36:20;8.90;99.90
51559;DHT22;61650;48.882;2.092;2023-03-19T06:38:46;9.00;99.90
51559;DHT22;61650;48.882;2.092;2023-03-19T06:41:12;9.00;99.90
51559;DHT22;61650;48.882;2.092;2023-03-19T06:43:37;9.00;99.90
51559;DHT22;61650;48.882;2.092;2023-03-19T06:46:06;9.00;99.90
51559;DHT22;61650;48.882;2.092;2023-03-19T06:48:33;9.10;99.90
51559;DHT22;61650;48.882;2.092;2023-03-19T06:50:59;9.10;99.90
51559;DHT22;61650;48.882;2.092;2023-03-19T06:53:26;9.10;99.90
51559;DHT22;61650;48.882;2.092;2023-03-19T06:55:51;9.10;99.90
51559;DHT22;61650;48.882;2.092;2023-03-19T06:58:17;9.10;99.90
51559;DHT22;61650;48.882;2.092;2023-03-19T07:00:43;9.10;99.90
51559;DHT22;61650;48.882;2.092;2023-03-19T07:03:09;9.20;99.90
51559;DHT22;61650;48.882;2.092;2023-03-19T07:05:35;9.10;99.90
51559;DHT22;61650;48.882;2.092;2023-03-19T07:08:01;9.00;99.90
51559;DHT22;61650;48.882;2.092;2023-03-19T07:10:27;9.00;99.90
51559;DHT22;61650;48.882;2.092;2023-03-19T07:12:52;8.90;99.90
51559;DHT22;61650;48.882;2.092;2023-03-19T07:15:18;8.80;99.90
51559;DHT22;61650;48.882;2.092;2023-03-19T07:17:46;8.80;99.90
51559;DHT22;61650;48.882;2.092;2023-03-19T07:20:12;8.80;99.90
51559;DHT22;61650;48.882;2.092;2023-03-19T07:22:38;8.70;99.90
51559;DHT22;61650;48.882;2.092;2023-03-19T07:25:04;8.70;99.90
51559;DHT22;61650;48.882;2.092;2023-03-19T07:27:29;8.70;99.90
51559;DHT22;61650;48.882;2.092;2023-03-19T07:29:55;8.80;99.90
51559;DHT22;61650;48.882;2.092;2023-03-19T07:32:21;8.80;99.90
51559;DHT22;61650;48.882;2.092;2023-03-19T07:34:48;8.80;99.90
51559;DHT22;61650;48.882;2.092;2023-03-19T07:37:13;8.90;99.90
51559;DHT22;61650;48.882;2.092;2023-03-19T07:39:39;9.00;99.90
51559;DHT22;61650;48.882;2.092;2023-03-19T07:42:05;9.10;99.90
51559;DHT22;61650;48.882;2.092;2023-03-19T07:44:31;9.20;99.90
51559;DHT22;61650;48.882;2.092;2023-03-19T07:46:56;9.40;99.90
51559;DHT22;61650;48.882;2.092;2023-03-19T07:49:22;9.40;99.90
51559;DHT22;61650;48.882;2.092;2023-03-19T07:51:48;9.30;99.90
51559;DHT22;61650;48.882;2.092;2023-03-19T07:54:14;9.10;99.90
51559;DHT22;61650;48.882;2.092;2023-03-19T07:56:40;9.10;99.90
51559;DHT22;61650;48.882;2.092;2023-03-19T07:59:06;9.20;99.90
51559;DHT22;61650;48.882;2.092;2023-03-19T08:01:31;9.30;99.90
51559;DHT22;61650;48.882;2.092;2023-03-19T08:03:57;9.20;99.90
51559;DHT22;61650;48.882;2.092;2023-03-19T08:06:23;9.30;99.90
51559;DHT22;61650;48.882;2.092;2023-03-19T08:08:48;9.10;99.90
51559;DHT22;61650;48.882;2.092;2023-03-19T08:11:14;9.00;99.90
51559;DHT22;61650;48.882;2.092;2023-03-19T08:13:41;8.70;99.90
51559;DHT22;61650;48.882;2.092;2023-03-19T08:16:07;8.70;99.90
51559;DHT22;61650;48.882;2.092;2023-03-19T08:18:33;8.70;99.90
51559;DHT22;61650;48.882;2.092;2023-03-19T08:20:59;8.70;99.90
51559;DHT22;61650;48.882;2.092;2023-03-19T08:23:25;8.80;99.90
51559;DHT22;61650;48.882;2.092;2023-03-19T08:25:52;8.70;99.90
51559;DHT22;61650;48.882;2.092;2023-03-19T08:28:18;8.40;99.90
51559;DHT22;61650;48.882;2.092;2023-03-19T08:30:45;8.40;99.90
51559;DHT22;61650;48.882;2.092;2023-03-19T08:33:10;8.30;99.90
51559;DHT22;61650;48.882;2.092;2023-03-19T08:35:36;8.30;99.90
51559;DHT22;61650;48.882;2.092;2023-03-19T08:38:02;8.50;99.90
51559;DHT22;61650;48.882;2.092;2023-03-19T08:40:28;8.60;99.90
51559;DHT22;61650;48.882;2.092;2023-03-19T08:42:54;8.60;99.90
51559;DHT22;61650;48.882;2.092;2023-03-19T08:45:21;8.60;99.90
51559;DHT22;61650;48.882;2.092;2023-03-19T08:47:48;8.70;99.90
51559;DHT22;61650;48.882;2.092;2023-03-19T08:50:14;8.80;99.90
51559;DHT22;61650;48.882;2.092;2023-03-19T08:52:40;8.80;99.90
51559;DHT22;61650;48.882;2.092;2023-03-19T08:55:06;8.90;99.90
51559;DHT22;61650;48.882;2.092;2023-03-19T08:57:32;8.90;99.90
51559;DHT22;61650;48.882;2.092;2023-03-19T08:59:58;8.90;99.90
51559;DHT22;61650;48.882;2.092;2023-03-19T09:02:24;9.00;99.90
51559;DHT22;61650;48.882;2.092;2023-03-19T09:04:50;9.10;99.90
51559;DHT22;61650;48.882;2.092;2023-03-19T09:07:15;9.20;99.90
51559;DHT22;61650;48.882;2.092;2023-03-19T09:09:44;9.20;99.90
51559;DHT22;61650;48.882;2.092;2023-03-19T09:12:12;9.30;99.90
51559;DHT22;61650;48.882;2.092;2023-03-19T09:14:39;9.30;99.90
51559;DHT22;61650;48.882;2.092;2023-03-19T09:17:05;9.50;99.90
51559;DHT22;61650;48.882;2.092;2023-03-19T09:19:32;9.50;99.90
51559;DHT22;61650;48.882;2.092;2023-03-19T09:21:58;9.50;99.90
51559;DHT22;61650;48.882;2.092;2023-03-19T09:24:24;9.80;99.90
51559;DHT22;61650;48.882;2.092;2023-03-19T09:26:50;9.80;99.90
51559;DHT22;61650;48.882;2.092;2023-03-19T09:29:16;9.90;99.90
51559;DHT22;61650;48.882;2.092;2023-03-19T09:31:42;9.70;99.90
51559;DHT22;61650;48.882;2.092;2023-03-19T09:34:07;9.80;99.90
51559;DHT22;61650;48.882;2.092;2023-03-19T09:36:34;9.80;99.90
51559;DHT22;61650;48.882;2.092;2023-03-19T09:39:01;9.90;99.90
51559;DHT22;61650;48.882;2.092;2023-03-19T09:44:13;9.50;99.90
51559;DHT22;61650;48.882;2.092;2023-03-19T09:49:31;9.20;99.90
51559;DHT22;61650;48.882;2.092;2023-03-19T09:51:59;9.10;99.90
51559;DHT22;61650;48.882;2.092;2023-03-19T09:54:48;9.10;99.90
51559;DHT22;61650;48.882;2.092;2023-03-19T09:57:16;8.80;99.90
51559;DHT22;61650;48.882;2.092;2023-03-19T09:59:42;8.50;99.90
51559;DHT22;61650;48.882;2.092;2023-03-19T10:12:52;8.40;99.90
51559;DHT22;61650;48.882;2.092;2023-03-19T10:15:28;8.60;99.90
51559;DHT22;61650;48.882;2.092;2023-03-19T10:18:11;8.70;99.90
51559;DHT22;61650;48.882;2.092;2023-03-19T10:20:48;8.80;99.90
51559;DHT22;61650;48.882;2.092;2023-03-19T10:25:56;8.70;99.90
51559;DHT22;61650;48.882;2.092;2023-03-19T10:28:22;8.80;99.90
51559;DHT22;61650;48.882;2.092;2023-03-19T10:33:41;8.80;99.90
51559;DHT22;61650;48.882;2.092;2023-03-19T10:36:10;8.80;99.90
51559;DHT22;61650;48.882;2.092;2023-03-19T10:38:41;8.90;99.90
51559;DHT22;61650;48.882;2.092;2023-03-19T10:41:15;9.00;99.90
51559;DHT22;61650;48.882;2.092;2023-03-19T10:43:50;9.00;99.90
51559;DHT22;61650;48.882;2.092;2023-03-19T10:46:16;9.10;99.90
51559;DHT22;61650;48.882;2.092;2023-03-19T10:48:44;9.10;99.90
51559;DHT22;61650;48.882;2.092;2023-03-19T10:51:13;9.10;99.90
51559;DHT22;61650;48.882;2.092;2023-03-19T10:53:40;8.90;99.90
51559;DHT22;61650;48.882;2.092;2023-03-19T10:58:34;8.60;99.90
51559;DHT22;61650;48.882;2.092;2023-03-19T11:01:10;8.50;99.90
51559;DHT22;61650;48.882;2.092;2023-03-19T11:03:38;8.30;99.90
51559;DHT22;61650;48.882;2.092;2023-03-19T11:06:13;8.40;99.90
51559;DHT22;61650;48.882;2.092;2023-03-19T11:09:17;8.30;99.90
51559;DHT22;61650;48.882;2.092;2023-03-19T11:11:44;8.40;99.90
51559;DHT22;61650;48.882;2.092;2023-03-19T11:14:50;8.60;99.90
51559;DHT22;61650;48.882;2.092;2023-03-19T11:17:26;8.70;99.90
51559;DHT22;61650;48.882;2.092;2023-03-19T11:19:56;8.50;99.90
51559;DHT22;61650;48.882;2.092;2023-03-19T11:22:31;8.50;99.90
51559;DHT22;61650;48.882;2.092;2023-03-19T11:25:12;8.60;99.90
51559;DHT22;61650;48.882;2.092;2023-03-19T11:27:39;8.70;99.90
51559;DHT22;61650;48.882;2.092;2023-03-19T11:30:18;8.70;99.90
51559;DHT22;61650;48.882;2.092;2023-03-19T11:36:04;9.10;99.90
51559;DHT22;61650;48.882;2.092;2023-03-19T11:44:47;9.10;99.90
51559;DHT22;61650;48.882;2.092;2023-03-19T11:47:35;9.10;99.90
51559;DHT22;61650;48.882;2.092;2023-03-19T11:52:36;9.40;99.90
51559;DHT22;61650;48.882;2.092;2023-03-19T12:00:28;9.40;99.90
51559;DHT22;61650;48.882;2.092;2023-03-19T12:08:41;10.30;99.90
51559;DHT22;61650;48.882;2.092;2023-03-19T12:11:23;11.90;99.90
51559;DHT22;61650;48.882;2.092;2023-03-19T12:14:05;11.10;99.90
51559;DHT22;61650;48.882;2.092;2023-03-19T12:16:47;10.60;99.90
51559;DHT22;61650;48.882;2.092;2023-03-19T12:19:27;10.30;99.90
51559;DHT22;61650;48.882;2.092;2023-03-19T12:25:00;10.00;99.90
51559;DHT22;61650;48.882;2.092;2023-03-19T12:27:45;9.70;99.90
51559;DHT22;61650;48.882;2.092;2023-03-19T12:35:36;9.90;99.90
51559;DHT22;61650;48.882;2.092;2023-03-19T12:40:59;10.10;99.90
51559;DHT22;61650;48.882;2.092;2023-03-19T12:46:32;10.10;99.90
51559;DHT22;61650;48.882;2.092;2023-03-19T12:49:05;10.50;99.90
51559;DHT22;61650;48.882;2.092;2023-03-19T12:51:35;10.40;99.90
51559;DHT22;61650;48.882;2.092;2023-03-19T12:54:23;10.60;99.90
51559;DHT22;61650;48.882;2.092;2023-03-19T12:56:58;10.60;99.90
51559;DHT22;61650;48.882;2.092;2023-03-19T12:59:31;10.50;99.90
51559;DHT22;61650;48.882;2.092;2023-03-19T13:02:22;10.50;99.90
51559;DHT22;61650;48.882;2.092;2023-03-19T13:10:50;10.70;99.90
51559;DHT22;61650;48.882;2.092;2023-03-19T13:15:55;10.20;99.90
51559;DHT22;61650;48.882;2.092;2023-03-19T13:18:42;10.00;99.90
51559;DHT22;61650;48.882;2.092;2023-03-19T13:21:30;10.00;99.90
51559;DHT22;61650;48.882;2.092;2023-03-19T13:24:07;10.10;99.90
51559;DHT22;61650;48.882;2.092;2023-03-19T13:26:38;9.80;92.60
51559;DHT22;61650;48.882;2.092;2023-03-19T13:31:42;9.80;99.80
51559;DHT22;61650;48.882;2.092;2023-03-19T13:34:19;9.60;99.90
51559;DHT22;61650;48.882;2.092;2023-03-19T13:39:35;9.50;99.90
51559;DHT22;61650;48.882;2.092;2023-03-19T13:45:00;9.50;99.90
51559;DHT22;61650;48.882;2.092;2023-03-19T13:53:21;9.60;99.90
51559;DHT22;61650;48.882;2.092;2023-03-19T13:55:58;9.80;99.90
51559;DHT22;61650;48.882;2.092;2023-03-19T13:58:26;9.90;99.90
51559;DHT22;61650;48.882;2.092;2023-03-19T14:01:35;9.90;94.30
51559;DHT22;61650;48.882;2.092;2023-03-19T14:04:30;9.90;91.30
51559;DHT22;61650;48.882;2.092;2023-03-19T14:06:57;9.90;86.60
51559;DHT22;61650;48.882;2.092;2023-03-19T14:09:47;10.30;95.30
51559;DHT22;61650;48.882;2.092;2023-03-19T14:18:04;13.60;92.70
51559;DHT22;61650;48.882;2.092;2023-03-19T14:20:44;13.10;94.00
51559;DHT22;61650;48.882;2.092;2023-03-19T14:23:22;12.00;82.80
51559;DHT22;61650;48.882;2.092;2023-03-19T14:26:03;11.40;95.20
51559;DHT22;61650;48.882;2.092;2023-03-19T14:28:46;11.20;98.20
51559;DHT22;61650;48.882;2.092;2023-03-19T14:31:30;10.90;93.20
51559;DHT22;61650;48.882;2.092;2023-03-19T14:34:19;10.60;93.10
51559;DHT22;61650;48.882;2.092;2023-03-19T14:37:07;10.50;82.60
51559;DHT22;61650;48.882;2.092;2023-03-19T14:39:40;10.40;91.10
51559;DHT22;61650;48.882;2.092;2023-03-19T14:42:26;10.80;99.90
51559;DHT22;61650;48.882;2.092;2023-03-19T14:52:58;11.00;93.80
51559;DHT22;61650;48.882;2.092;2023-03-19T14:55:35;11.00;94.70
51559;DHT22;61650;48.882;2.092;2023-03-19T14:58:01;10.90;94.10
51559;DHT22;61650;48.882;2.092;2023-03-19T15:00:27;11.10;93.00
51559;DHT22;61650;48.882;2.092;2023-03-19T15:02:53;11.10;99.00
51559;DHT22;61650;48.882;2.092;2023-03-19T15:05:25;11.10;98.20
51559;DHT22;61650;48.882;2.092;2023-03-19T15:08:03;10.90;99.60
51559;DHT22;61650;48.882;2.092;2023-03-19T15:11:03;10.70;99.90
51559;DHT22;61650;48.882;2.092;2023-03-19T15:18:53;10.10;95.40
51559;DHT22;61650;48.882;2.092;2023-03-19T15:21:19;10.10;99.90
51559;DHT22;61650;48.882;2.092;2023-03-19T15:23:46;10.10;99.90
51559;DHT22;61650;48.882;2.092;2023-03-19T15:26:12;10.20;89.10
51559;DHT22;61650;48.882;2.092;2023-03-19T15:28:47;10.00;92.30
51559;DHT22;61650;48.882;2.092;2023-03-19T15:31:13;10.00;97.10
51559;DHT22;61650;48.882;2.092;2023-03-19T15:33:40;10.10;95.20
51559;DHT22;61650;48.882;2.092;2023-03-19T15:38:41;10.40;97.70
51559;DHT22;61650;48.882;2.092;2023-03-19T15:41:09;10.40;99.90
51559;DHT22;61650;48.882;2.092;2023-03-19T15:43:38;10.30;96.30
51559;DHT22;61650;48.882;2.092;2023-03-19T15:46:07;10.10;80.50
51559;DHT22;61650;48.882;2.092;2023-03-19T15:51:10;9.80;87.20
51559;DHT22;61650;48.882;2.092;2023-03-19T15:53:38;9.80;84.40
51559;DHT22;61650;48.882;2.092;2023-03-19T15:56:04;9.90;84.60
51559;DHT22;61650;48.882;2.092;2023-03-19T15:58:35;10.20;85.90
51559;DHT22;61650;48.882;2.092;2023-03-19T16:01:05;10.40;85.70
51559;DHT22;61650;48.882;2.092;2023-03-19T16:03:39;10.60;88.70
51559;DHT22;61650;48.882;2.092;2023-03-19T16:06:29;10.50;75.50
51559;DHT22;61650;48.882;2.092;2023-03-19T16:11:40;10.40;93.60
51559;DHT22;61650;48.882;2.092;2023-03-19T16:14:30;10.50;93.60
51559;DHT22;61650;48.882;2.092;2023-03-19T16:17:02;10.50;79.50
51559;DHT22;61650;48.882;2.092;2023-03-19T16:19:49;10.40;90.40
51559;DHT22;61650;48.882;2.092;2023-03-19T16:25:16;10.20;87.90
51559;DHT22;61650;48.882;2.092;2023-03-19T16:27:45;10.10;71.90
51559;DHT22;61650;48.882;2.092;2023-03-19T16:30:19;10.00;82.10
51559;DHT22;61650;48.882;2.092;2023-03-19T16:32:55;9.80;81.80
51559;DHT22;61650;48.882;2.092;2023-03-19T16:35:21;9.80;90.60
51559;DHT22;61650;48.882;2.092;2023-03-19T16:37:51;9.70;81.30
51559;DHT22;61650;48.882;2.092;2023-03-19T16:42:52;9.70;82.30
51559;DHT22;61650;48.882;2.092;2023-03-19T16:45:30;9.80;80.90
51559;DHT22;61650;48.882;2.092;2023-03-19T16:47:58;9.90;81.40
51559;DHT22;61650;48.882;2.092;2023-03-19T16:50:38;9.90;82.00
51559;DHT22;61650;48.882;2.092;2023-03-19T16:55:48;9.90;70.90
51559;DHT22;61650;48.882;2.092;2023-03-19T16:58:17;9.90;83.20
51559;DHT22;61650;48.882;2.092;2023-03-19T17:00:44;9.90;83.20
51559;DHT22;61650;48.882;2.092;2023-03-19T17:03:13;9.80;75.60
51559;DHT22;61650;48.882;2.092;2023-03-19T17:05:39;9.80;85.30
51559;DHT22;61650;48.882;2.092;2023-03-19T17:08:04;9.70;84.80
51559;DHT22;61650;48.882;2.092;2023-03-19T17:10:30;9.60;90.80
51559;DHT22;61650;48.882;2.092;2023-03-19T17:12:57;9.60;85.90
51559;DHT22;61650;48.882;2.092;2023-03-19T17:15:26;9.50;88.80
51559;DHT22;61650;48.882;2.092;2023-03-19T17:17:52;9.40;93.50
51559;DHT22;61650;48.882;2.092;2023-03-19T17:20:25;9.30;76.10
51559;DHT22;61650;48.882;2.092;2023-03-19T17:22:52;9.30;82.70
51559;DHT22;61650;48.882;2.092;2023-03-19T17:25:18;9.30;86.40
51559;DHT22;61650;48.882;2.092;2023-03-19T17:27:44;9.30;87.40
51559;DHT22;61650;48.882;2.092;2023-03-19T17:30:10;9.30;87.80
51559;DHT22;61650;48.882;2.092;2023-03-19T17:32:37;9.30;93.30
51559;DHT22;61650;48.882;2.092;2023-03-19T17:37:40;9.00;89.20
51559;DHT22;61650;48.882;2.092;2023-03-19T17:42:42;9.00;90.70
51559;DHT22;61650;48.882;2.092;2023-03-19T17:45:15;8.90;84.10
51559;DHT22;61650;48.882;2.092;2023-03-19T17:47:50;8.90;87.70
51559;DHT22;61650;48.882;2.092;2023-03-19T17:50:20;8.90;86.10
51559;DHT22;61650;48.882;2.092;2023-03-19T17:52:47;9.00;83.70
51559;DHT22;61650;48.882;2.092;2023-03-19T17:55:20;9.00;81.10
51559;DHT22;61650;48.882;2.092;2023-03-19T17:57:46;8.90;84.40
51559;DHT22;61650;48.882;2.092;2023-03-19T18:00:14;8.80;87.60
51559;DHT22;61650;48.882;2.092;2023-03-19T18:02:40;8.70;81.20
51559;DHT22;61650;48.882;2.092;2023-03-19T18:05:16;8.60;86.30